Time;durP1;ratioP1;P1;durP2;ratioP2;P2;SDS_P1;SDS_P2;PMS_P1;PMS_P2;Temp;Humidity;BMP_temperature;BMP_pressure;BME280_temperature;BME280_humidity;BME280_pressure;Samples;Min_cycle;Max_cycle;Signal;HPM_P1;HPM_P2
2023/08/19 00:01:27;;;;;;;19.20;17.33;;;;;;;21.67;100.00;100838.75;4969178;28;20050;-85
2023/08/19 00:03:54;;;;;;;19.33;17.40;;;;;;;21.65;100.00;100845.94;4987613;28;20058;-84
2023/08/19 00:06:38;;;;;;;19.30;17.30;;;;;;;21.62;100.00;100843.47;4973129;28;20050;-86
2023/08/19 00:09:07;;;;;;;19.02;17.02;;;;;;;21.59;100.00;100832.94;4964784;28;20077;-84
2023/08/19 00:11:40;;;;;;;18.88;16.98;;;;;;;21.56;100.00;100836.66;4962373;28;20054;-85
2023/08/19 00:14:08;;;;;;;20.85;18.60;;;;;;;21.53;100.00;100833.25;4968600;28;20038;-86
2023/08/19 00:16:35;;;;;;;20.40;18.35;;;;;;;21.51;100.00;100832.47;4966384;28;20046;-84
2023/08/19 00:19:02;;;;;;;19.85;17.70;;;;;;;21.47;100.00;100826.44;4979150;28;20038;-86
2023/08/19 00:21:32;;;;;;;21.05;18.83;;;;;;;21.45;100.00;100828.31;4977077;28;20081;-87
2023/08/19 00:24:01;;;;;;;19.52;17.55;;;;;;;21.43;100.00;100831.06;4973860;28;20041;-85
2023/08/19 00:26:29;;;;;;;21.92;17.73;;;;;;;21.40;100.00;100822.38;4967814;28;20057;-84
2023/08/19 00:28:56;;;;;;;19.98;17.77;;;;;;;21.39;100.00;100833.97;4970182;28;20070;-87
2023/08/19 00:31:23;;;;;;;21.17;17.45;;;;;;;21.36;100.00;100815.50;4977625;28;20045;-85
2023/08/19 00:33:53;;;;;;;18.73;16.90;;;;;;;21.35;100.00;100819.94;4986997;28;20047;-91
2023/08/19 00:36:22;;;;;;;18.63;16.70;;;;;;;21.31;100.00;100818.38;4984237;28;20066;-87
2023/08/19 00:38:51;;;;;;;19.48;17.55;;;;;;;21.28;100.00;100810.56;4975345;28;20078;-89
2023/08/19 00:41:21;;;;;;;20.13;17.40;;;;;;;21.24;100.00;100806.34;4963004;28;20093;-86
2023/08/19 00:43:48;;;;;;;21.05;18.92;;;;;;;21.23;100.00;100801.94;4973788;28;20533;-87
2023/08/19 00:46:14;;;;;;;22.35;19.10;;;;;;;21.18;100.00;100802.16;4977313;28;20511;-81
2023/08/19 00:48:41;;;;;;;21.63;19.27;;;;;;;21.17;100.00;100802.25;4966859;28;20070;-81
2023/08/19 00:51:08;;;;;;;20.58;18.45;;;;;;;21.15;100.00;100808.50;4991098;28;20041;-83
2023/08/19 00:53:35;;;;;;;20.23;18.13;;;;;;;21.12;100.00;100806.00;4988790;28;20065;-83
2023/08/19 00:56:03;;;;;;;23.38;19.73;;;;;;;21.11;100.00;100801.63;4992150;28;20077;-89
2023/08/19 00:58:29;;;;;;;21.77;19.27;;;;;;;21.10;100.00;100801.69;4982238;28;20046;-84
2023/08/19 01:00:56;;;;;;;22.52;20.23;;;;;;;21.07;100.00;100800.06;4970900;28;20046;-85
2023/08/19 01:03:24;;;;;;;24.38;20.67;;;;;;;21.06;100.00;100795.66;4960749;28;20444;-82
2023/08/19 01:06:22;;;;;;;22.05;19.85;;;;;;;21.04;100.00;100794.91;4971857;28;20524;-85
2023/08/19 01:09:12;;;;;;;20.65;18.52;;;;;;;21.01;100.00;100791.53;4991716;28;20073;-85
2023/08/19 01:12:24;;;;;;;21.13;18.80;;;;;;;20.98;100.00;100793.41;4991075;28;20121;-86
2023/08/19 01:15:16;;;;;;;23.95;19.45;;;;;;;20.95;100.00;100788.25;4959234;28;20137;-87
2023/08/19 01:17:45;;;;;;;22.42;19.40;;;;;;;20.92;100.00;100791.03;4969137;28;20046;-84
2023/08/19 01:20:14;;;;;;;22.83;20.23;;;;;;;20.88;100.00;100781.47;4973212;28;20042;-83
2023/08/19 01:22:57;;;;;;;22.23;19.83;;;;;;;20.88;100.00;100783.31;4967551;28;20614;-87
2023/08/19 01:25:25;;;;;;;20.33;18.23;;;;;;;20.86;100.00;100783.38;4969251;28;20070;-84
2023/08/19 01:27:52;;;;;;;20.27;18.27;;;;;;;20.82;100.00;100780.00;4959215;28;20375;-85
2023/08/19 01:30:18;;;;;;;22.95;20.58;;;;;;;20.78;100.00;100786.41;4976101;28;20046;-87
2023/08/19 01:32:46;;;;;;;22.40;20.00;;;;;;;20.75;100.00;100785.72;4994587;28;20046;-83
2023/08/19 01:35:15;;;;;;;22.45;19.48;;;;;;;20.72;100.00;100780.56;4977180;28;20050;-83
2023/08/19 01:38:01;;;;;;;22.92;20.27;;;;;;;20.68;100.00;100785.13;4969573;28;20058;-85
2023/08/19 01:40:29;;;;;;;22.25;19.85;;;;;;;20.63;100.00;100787.13;4967015;28;20181;-85
2023/08/19 01:42:58;;;;;;;22.92;19.58;;;;;;;20.61;100.00;100786.34;4954179;28;20074;-85
2023/08/19 01:45:26;;;;;;;21.65;19.45;;;;;;;20.56;100.00;100791.03;4981982;28;20046;-84
2023/08/19 01:47:54;;;;;;;20.70;18.48;;;;;;;20.53;100.00;100788.53;4968576;28;20054;-88
2023/08/19 01:50:22;;;;;;;22.13;19.63;;;;;;;20.52;100.00;100792.13;4974006;28;20801;-84
2023/08/19 01:52:49;;;;;;;21.65;19.42;;;;;;;20.46;100.00;100796.78;4971601;28;20054;-84
2023/08/19 01:55:16;;;;;;;19.05;17.15;;;;;;;20.41;100.00;100782.84;4993046;28;20046;-85
2023/08/19 01:57:43;;;;;;;23.85;19.92;;;;;;;20.39;100.00;100787.41;4987484;28;20414;-85
2023/08/19 02:00:10;;;;;;;22.08;19.42;;;;;;;20.37;100.00;100783.09;4957653;28;20763;-86
2023/08/19 02:02:37;;;;;;;23.48;20.73;;;;;;;20.34;100.00;100789.41;4977777;28;20069;-85
2023/08/19 02:05:04;;;;;;;24.30;21.70;;;;;;;20.34;100.00;100792.06;4985647;28;20043;-88
2023/08/19 02:07:30;;;;;;;23.33;20.67;;;;;;;20.29;100.00;100792.28;4972705;28;20046;-86
2023/08/19 02:09:57;;;;;;;22.95;20.48;;;;;;;20.26;100.00;100787.13;4987550;28;20046;-86
2023/08/19 02:12:23;;;;;;;23.08;20.58;;;;;;;20.25;100.00;100788.03;4994346;28;20034;-84
2023/08/19 02:14:50;;;;;;;25.55;21.88;;;;;;;20.21;100.00;100791.78;4951364;28;20112;-91
2023/08/19 02:17:17;;;;;;;22.02;19.70;;;;;;;20.20;100.00;100786.56;4988579;28;20054;-85
2023/08/19 02:19:43;;;;;;;24.65;22.13;;;;;;;20.16;100.00;100791.16;4971819;28;20058;-84
2023/08/19 02:22:10;;;;;;;23.08;20.75;;;;;;;20.14;100.00;100793.88;4976426;28;20046;-87
2023/08/19 02:24:37;;;;;;;24.67;22.23;;;;;;;20.11;100.00;100785.19;4955320;28;20036;-90
2023/08/19 02:27:03;;;;;;;23.83;21.30;;;;;;;20.07;100.00;100781.78;5001216;28;20105;-86
2023/08/19 02:29:30;;;;;;;25.65;22.95;;;;;;;20.06;100.00;100785.38;4973252;28;20046;-89
2023/08/19 02:31:57;;;;;;;25.50;21.42;;;;;;;20.05;100.00;100783.69;4940685;28;20178;-85
2023/08/19 02:34:23;;;;;;;25.13;22.33;;;;;;;20.06;100.00;100789.84;4991138;28;20596;-82
2023/08/19 02:36:53;;;;;;;26.33;23.58;;;;;;;20.05;100.00;100786.34;4977396;28;20446;-82
2023/08/19 02:39:20;;;;;;;27.88;23.95;;;;;;;20.06;100.00;100789.84;4979507;28;20447;-85
2023/08/19 02:41:46;;;;;;;25.52;22.92;;;;;;;20.03;100.00;100792.66;4973734;28;20046;-85
2023/08/19 02:44:13;;;;;;;24.55;21.35;;;;;;;19.99;100.00;100791.94;4944011;28;20049;-86
2023/08/19 02:46:40;;;;;;;30.30;24.88;;;;;;;19.95;100.00;100790.34;4976676;28;20058;-86
2023/08/19 02:49:07;;;;;;;25.35;22.52;;;;;;;19.95;100.00;100795.66;4970214;28;20043;-86
2023/08/19 02:51:34;;;;;;;26.50;23.63;;;;;;;19.93;100.00;100792.22;4979119;28;20049;-83
2023/08/19 02:54:00;;;;;;;31.45;23.55;;;;;;;19.92;100.00;100795.78;4987319;28;20046;-85
2023/08/19 02:56:27;;;;;;;29.38;23.17;;;;;;;19.89;100.00;100798.59;4973011;28;20042;-87
2023/08/19 02:58:53;;;;;;;25.67;22.90;;;;;;;19.88;100.00;100789.78;4969778;28;20059;-84
2023/08/19 03:01:20;;;;;;;27.73;24.73;;;;;;;19.86;100.00;100793.44;4973402;28;20038;-85
2023/08/19 03:03:47;;;;;;;34.25;26.05;;;;;;;19.85;100.00;100789.03;4972174;28;20050;-86
2023/08/19 03:06:14;;;;;;;28.25;24.15;;;;;;;19.82;100.00;100792.72;4963809;28;20042;-85
2023/08/19 03:08:40;;;;;;;25.58;23.05;;;;;;;19.78;100.00;100793.75;4974452;28;20081;-85
2023/08/19 03:11:07;;;;;;;28.52;25.20;;;;;;;19.76;100.00;100788.47;4990892;28;20066;-84
2023/08/19 03:13:35;;;;;;;29.83;26.40;;;;;;;19.75;100.00;100793.88;4968271;28;20131;-85
2023/08/19 03:16:03;;;;;;;26.95;23.98;;;;;;;19.72;100.00;100788.72;4981095;28;20046;-90
2023/08/19 03:18:30;;;;;;;29.23;24.55;;;;;;;19.70;100.00;100787.91;4969920;28;20050;-84
2023/08/19 03:20:59;;;;;;;28.70;23.98;;;;;;;19.68;100.00;100782.66;4968683;28;20066;-84
2023/08/19 03:23:27;;;;;;;25.80;23.00;;;;;;;19.68;100.00;100780.00;4970194;28;20133;-88
2023/08/19 03:25:55;;;;;;;25.17;21.38;;;;;;;19.66;100.00;100777.44;4974866;28;20129;-87
2023/08/19 03:28:22;;;;;;;33.35;25.30;;;;;;;19.62;100.00;100780.28;4978680;28;20066;-87
2023/08/19 03:30:54;;;;;;;27.35;24.25;;;;;;;19.61;100.00;100789.19;4973359;28;20053;-86
2023/08/19 03:33:21;;;;;;;27.05;24.20;;;;;;;19.58;100.00;100773.38;4975992;28;20212;-86
2023/08/19 03:35:47;;;;;;;28.23;25.02;;;;;;;19.56;100.00;100777.91;4965737;28;20064;-83
2023/08/19 03:38:16;;;;;;;26.65;23.40;;;;;;;19.53;100.00;100772.72;4994668;28;20042;-83
2023/08/19 03:40:42;;;;;;;32.70;26.83;;;;;;;19.53;100.00;100783.34;4971376;28;20046;-89
2023/08/19 03:43:10;;;;;;;33.10;27.08;;;;;;;19.50;100.00;100782.56;4963898;28;20046;-83
2023/08/19 03:45:37;;;;;;;29.52;23.35;;;;;;;19.50;100.00;100787.00;4969086;28;20053;-86
2023/08/19 03:48:04;;;;;;;27.63;24.55;;;;;;;19.47;100.00;100795.09;4954692;28;20034;-84
2023/08/19 03:50:31;;;;;;;31.98;26.88;;;;;;;19.44;100.00;100793.44;4958803;28;20042;-85
2023/08/19 03:52:57;;;;;;;32.00;25.42;;;;;;;19.43;100.00;100785.56;4991462;28;20364;-86
2023/08/19 03:55:24;;;;;;;32.78;27.20;;;;;;;19.41;100.00;100788.28;4973870;28;20646;-85
2023/08/19 03:57:51;;;;;;;30.90;27.58;;;;;;;19.41;100.00;100787.41;4971675;28;20069;-86
2023/08/19 04:00:17;;;;;;;30.60;25.30;;;;;;;19.41;100.00;100784.75;4990215;28;20089;-88
2023/08/19 04:02:44;;;;;;;28.42;25.35;;;;;;;19.42;100.00;100797.09;4954695;28;20141;-84
2023/08/19 04:05:11;;;;;;;30.45;25.30;;;;;;;19.42;100.00;100789.13;4969163;28;20043;-84
2023/08/19 04:07:38;;;;;;;29.27;25.02;;;;;;;19.41;100.00;100793.59;4973888;28;20050;-86
2023/08/19 04:10:06;;;;;;;32.40;26.88;;;;;;;19.42;100.00;100792.63;4972189;28;20142;-84
2023/08/19 04:12:33;;;;;;;33.47;23.83;;;;;;;19.40;100.00;100789.22;4984914;28;20137;-87
2023/08/19 04:14:59;;;;;;;26.60;22.77;;;;;;;19.43;100.00;100791.72;4975736;28;20061;-89
2023/08/19 04:17:26;;;;;;;27.80;23.27;;;;;;;19.42;100.00;100792.63;4994695;28;20046;-88
2023/08/19 04:19:53;;;;;;;30.20;24.15;;;;;;;19.40;100.00;100797.16;4995636;28;20053;-85
2023/08/19 04:22:20;;;;;;;27.27;23.38;;;;;;;19.39;100.00;100790.13;4992894;28;20550;-85
2023/08/19 04:24:55;;;;;;;25.67;22.35;;;;;;;19.39;100.00;100789.28;4975885;28;20049;-86
2023/08/19 04:27:23;;;;;;;31.13;23.95;;;;;;;19.40;100.00;100797.16;4969109;28;20481;-84
2023/08/19 04:29:50;;;;;;;28.13;24.10;;;;;;;19.40;100.00;100790.97;4973646;28;20042;-85
2023/08/19 04:32:17;;;;;;;28.23;22.70;;;;;;;19.44;100.00;100800.56;4970358;28;20038;-84
2023/08/19 04:34:44;;;;;;;26.27;23.00;;;;;;;19.45;100.00;100800.50;4970139;28;20058;-85
2023/08/19 04:37:10;;;;;;;25.52;21.80;;;;;;;19.47;100.00;100800.41;4969345;28;20056;-87
2023/08/19 04:39:38;;;;;;;25.95;23.17;;;;;;;19.50;100.00;100802.94;4991570;28;20038;-86
2023/08/19 04:42:06;;;;;;;26.45;22.85;;;;;;;19.55;100.00;100797.44;4970580;28;20375;-85
2023/08/19 04:44:33;;;;;;;25.05;22.33;;;;;;;19.55;100.00;100800.09;4971714;28;20128;-85
2023/08/19 04:46:59;;;;;;;24.17;20.75;;;;;;;19.57;100.00;100807.06;4955340;28;20053;-86
2023/08/19 04:49:26;;;;;;;26.70;21.98;;;;;;;19.59;100.00;100802.53;4973281;28;20038;-85
2023/08/19 04:51:53;;;;;;;25.38;22.05;;;;;;;19.62;100.00;100807.72;4965395;28;20082;-87
2023/08/19 04:54:20;;;;;;;26.77;22.70;;;;;;;19.64;100.00;100802.31;4985043;28;20039;-83
2023/08/19 04:56:46;;;;;;;28.27;22.88;;;;;;;19.66;100.00;100801.31;4969250;28;20047;-85
2023/08/19 04:59:13;;;;;;;24.45;21.92;;;;;;;19.69;100.00;100810.09;4957484;28;20046;-88
2023/08/19 05:01:40;;;;;;;27.13;23.10;;;;;;;19.70;100.00;100795.88;4988735;28;20046;-87
2023/08/19 05:04:07;;;;;;;27.15;22.83;;;;;;;19.72;100.00;100805.50;4994991;28;20046;-88
2023/08/19 05:06:34;;;;;;;25.48;21.35;;;;;;;19.75;100.00;100796.53;4981917;28;20141;-84
2023/08/19 05:09:02;;;;;;;27.08;21.40;;;;;;;19.80;100.00;100797.19;4972226;28;20049;-86
2023/08/19 05:11:29;;;;;;;24.17;20.20;;;;;;;19.82;100.00;100790.03;4987268;28;20042;-84
2023/08/19 05:13:58;;;;;;;24.42;21.92;;;;;;;19.86;100.00;100796.94;4953410;28;20459;-86
2023/08/19 05:16:25;;;;;;;25.52;20.77;;;;;;;19.90;100.00;100797.66;4976950;28;20126;-85
2023/08/19 05:19:22;;;;;;;25.27;21.10;;;;;;;19.95;100.00;100799.19;4986299;28;20133;-83
2023/08/19 05:21:49;;;;;;;20.92;18.67;;;;;;;20.00;100.00;100798.97;4972337;28;20056;-86
2023/08/19 05:24:18;;;;;;;22.88;19.70;;;;;;;20.03;100.00;100804.13;4987019;28;20063;-84
2023/08/19 05:26:45;;;;;;;22.38;19.85;;;;;;;20.06;100.00;100798.66;4977028;28;20053;-84
2023/08/19 05:29:13;;;;;;;23.58;20.40;;;;;;;20.12;100.00;100792.22;4958595;28;20141;-85
2023/08/19 05:31:41;;;;;;;23.17;20.35;;;;;;;20.19;100.00;100798.13;4988708;28;20458;-83
2023/08/19 05:34:09;;;;;;;21.88;18.67;;;;;;;20.24;100.00;100798.75;4980180;28;20055;-84
2023/08/19 05:36:35;;;;;;;24.67;19.73;;;;;;;20.28;100.00;100801.19;4952546;28;20060;-87
2023/08/19 05:39:03;;;;;;;20.40;18.23;;;;;;;20.33;100.00;100806.28;4967772;28;20517;-87
2023/08/19 05:41:30;;;;;;;21.75;19.00;;;;;;;20.36;100.00;100808.78;4967087;28;20205;-87
2023/08/19 05:43:56;;;;;;;23.02;19.80;;;;;;;20.41;100.00;100808.59;4950585;28;20086;-85
2023/08/19 05:46:23;;;;;;;22.80;20.25;;;;;;;20.45;100.00;100813.66;4986562;28;20042;-88
2023/08/19 05:48:50;;;;;;;22.77;20.05;;;;;;;20.50;100.00;100811.66;4981263;28;20034;-85
2023/08/19 05:51:17;;;;;;;24.85;20.65;;;;;;;20.53;100.00;100809.78;4968430;28;20051;-83
2023/08/19 05:53:47;;;;;;;22.88;19.98;;;;;;;20.57;100.00;100814.91;4959152;28;20566;-84
2023/08/19 05:56:14;;;;;;;22.73;18.50;;;;;;;20.63;100.00;100805.75;4960052;28;20434;-87
2023/08/19 05:58:41;;;;;;;23.13;19.88;;;;;;;20.69;100.00;100808.13;4957813;28;20058;-86
2023/08/19 06:01:07;;;;;;;20.17;18.08;;;;;;;20.73;100.00;100804.41;4976756;28;20046;-83
2023/08/19 06:03:34;;;;;;;23.50;18.73;;;;;;;20.81;100.00;100809.34;4978779;28;20061;-84
2023/08/19 06:06:06;;;;;;;22.02;18.58;;;;;;;20.88;100.00;100805.44;4972249;28;20046;-85
2023/08/19 06:08:33;;;;;;;20.08;18.02;;;;;;;20.94;100.00;100817.59;4981640;28;20574;-87
2023/08/19 06:11:06;;;;;;;21.65;18.58;;;;;;;21.01;100.00;100821.66;4977728;28;20042;-85
2023/08/19 06:13:35;;;;;;;23.45;17.77;;;;;;;21.07;100.00;100823.16;4979782;28;20443;-82
2023/08/19 06:16:03;;;;;;;21.45;16.88;;;;;;;21.15;100.00;100824.47;4959920;28;20062;-84
2023/08/19 06:18:33;;;;;;;17.88;16.10;;;;;;;21.26;100.00;100821.28;4955959;28;20526;-87
2023/08/19 06:21:10;;;;;;;16.35;14.65;;;;;;;21.37;100.00;100823.41;4992740;28;20042;-85
2023/08/19 06:23:42;;;;;;;17.90;15.93;;;;;;;21.48;100.00;100825.50;4982003;28;20141;-84
2023/08/19 06:26:09;;;;;;;18.02;15.40;;;;;;;21.60;100.00;100824.03;4991452;28;20051;-84
2023/08/19 06:28:36;;;;;;;16.83;15.13;;;;;;;21.69;100.00;100828.00;5001352;28;20533;-84
2023/08/19 06:31:04;;;;;;;17.88;15.63;;;;;;;21.78;100.00;100819.53;4982826;28;20061;-84
2023/08/19 06:33:31;;;;;;;26.00;15.77;;;;;;;21.86;100.00;100830.63;4976467;28;20046;-84
2023/08/19 06:36:00;;;;;;;16.13;14.52;;;;;;;21.95;100.00;100827.50;4967829;28;20054;-84
2023/08/19 06:38:29;;;;;;;17.50;15.45;;;;;;;22.04;100.00;100827.94;4947489;28;20105;-87
2023/08/19 06:41:02;;;;;;;17.98;15.35;;;;;;;22.10;100.00;100836.44;4955617;28;20097;-85
2023/08/19 06:43:32;;;;;;;16.90;15.20;;;;;;;22.19;100.00;100828.88;4964932;28;20514;-85
2023/08/19 06:46:05;;;;;;;15.98;14.40;;;;;;;22.30;100.00;100835.34;4969952;28;21138;-89
2023/08/19 06:48:33;;;;;;;;;;;;;;;22.46;100.00;100831.84;4994189;28;20038;-86
2023/08/19 06:51:01;;;;;;;15.52;13.35;;;;;;;22.63;100.00;100841.56;4973107;28;19930;-85
2023/08/19 06:53:28;;;;;;;15.13;13.52;;;;;;;22.84;100.00;100836.84;4969521;28;20125;-84
2023/08/19 06:56:24;;;;;;;14.77;13.27;;;;;;;23.11;100.00;100837.03;4978306;28;20523;-85
2023/08/19 06:59:22;;;;;;;14.25;12.55;;;;;;;23.53;100.00;100841.75;4980178;28;20041;-84
2023/08/19 07:01:53;;;;;;;13.85;12.32;;;;;;;23.95;100.00;100837.44;4978882;28;20125;-83
2023/08/19 07:05:31;;;;;;;15.13;13.65;;;;;;;24.48;98.88;100837.63;4965004;28;20077;-85
2023/08/19 07:08:02;;;;;;;14.55;13.07;;;;;;;25.02;94.81;100831.47;4974946;28;20055;-85
2023/08/19 07:10:30;;;;;;;15.02;12.38;;;;;;;25.43;94.59;100826.94;4983826;28;20038;-85
2023/08/19 07:12:58;;;;;;;12.85;11.57;;;;;;;25.97;93.10;100828.56;4989743;28;20042;-85
2023/08/19 07:15:25;;;;;;;15.05;12.93;;;;;;;26.44;88.24;100836.84;4985631;28;20061;-86
2023/08/19 07:17:55;;;;;;;12.30;11.10;;;;;;;26.71;86.90;100838.47;4966016;28;20081;-87
2023/08/19 07:20:23;;;;;;;11.82;10.55;;;;;;;26.82;84.24;100840.41;4990686;28;20047;-84
2023/08/19 07:22:53;;;;;;;11.93;10.65;;;;;;;26.81;86.14;100838.69;4974133;28;20074;-85
2023/08/19 07:25:20;;;;;;;13.10;11.80;;;;;;;26.87;83.71;100833.69;4990176;28;20126;-82
2023/08/19 07:27:47;;;;;;;12.00;10.95;;;;;;;27.22;82.86;100840.03;4966275;28;20050;-85
2023/08/19 07:30:15;;;;;;;13.77;12.38;;;;;;;27.58;81.43;100840.91;4983134;28;20054;-83
2023/08/19 07:32:43;;;;;;;11.63;10.50;;;;;;;28.04;80.36;100842.69;4971478;28;20061;-83
2023/08/19 07:35:10;;;;;;;12.57;10.80;;;;;;;28.42;76.55;100839.69;4962451;28;20095;-85
2023/08/19 07:37:37;;;;;;;12.73;10.23;;;;;;;28.66;75.12;100847.63;4965033;28;20051;-82
2023/08/19 07:40:06;;;;;;;11.23;9.65;;;;;;;28.71;75.64;100848.97;4988156;28;20134;-85
2023/08/19 07:42:33;;;;;;;10.27;9.40;;;;;;;28.93;74.49;100849.88;4984150;28;20047;-89
2023/08/19 07:44:59;;;;;;;11.00;9.82;;;;;;;29.26;72.68;100850.69;4963480;28;20055;-83
2023/08/19 07:47:26;;;;;;;14.93;9.48;;;;;;;29.65;68.32;100842.03;4984573;28;20047;-93
2023/08/19 07:49:55;;;;;;;10.15;9.15;;;;;;;29.79;66.05;100844.38;4989862;28;20043;-84
2023/08/19 07:52:23;;;;;;;10.45;9.55;;;;;;;30.13;66.68;100837.84;4975797;28;20073;-85
2023/08/19 07:54:50;;;;;;;10.32;9.32;;;;;;;30.02;63.85;100847.78;4982644;28;20129;-82
2023/08/19 07:57:16;;;;;;;9.70;8.90;;;;;;;30.07;64.90;100841.97;4990803;28;20070;-86
2023/08/19 07:59:43;;;;;;;10.15;9.25;;;;;;;30.33;64.75;100838.78;4983113;28;20069;-83
2023/08/19 08:02:10;;;;;;;9.23;8.32;;;;;;;30.61;63.38;100847.09;4977613;28;20062;-81
2023/08/19 08:04:37;;;;;;;9.77;8.77;;;;;;;31.13;60.98;100844.16;4996366;28;20037;-82
2023/08/19 08:07:04;;;;;;;9.65;8.70;;;;;;;31.48;58.78;100840.00;4978553;28;20080;-94
2023/08/19 08:09:30;;;;;;;9.73;8.70;;;;;;;31.67;56.10;100853.50;4967836;28;20047;-82
2023/08/19 08:11:57;;;;;;;9.35;8.55;;;;;;;31.81;57.33;100848.59;4986785;28;20138;-82
2023/08/19 08:14:26;;;;;;;9.95;8.82;;;;;;;31.75;55.90;100849.22;4988848;28;20061;-82
2023/08/19 08:16:56;;;;;;;9.35;8.50;;;;;;;31.75;55.55;100847.34;4982848;28;20123;-85
2023/08/19 08:19:26;;;;;;;10.48;9.13;;;;;;;32.28;54.43;100848.59;4978095;28;20043;-84
2023/08/19 08:21:53;;;;;;;7.97;7.25;;;;;;;32.86;53.06;100842.94;4991275;28;20038;-84
2023/08/19 08:24:22;;;;;;;9.00;8.15;;;;;;;33.09;50.97;100841.44;4986576;28;20550;-84
2023/08/19 08:26:49;;;;;;;9.10;8.30;;;;;;;32.76;53.16;100837.59;4973649;28;20061;-81
2023/08/19 08:29:18;;;;;;;8.65;7.85;;;;;;;33.11;51.90;100844.00;4988656;28;20035;-84
2023/08/19 08:31:44;;;;;;;8.93;8.10;;;;;;;33.69;50.63;100837.16;4971177;28;20046;-82
2023/08/19 08:34:11;;;;;;;8.57;7.70;;;;;;;34.17;48.45;100831.28;4983116;28;20522;-82
2023/08/19 08:36:38;;;;;;;9.25;8.38;;;;;;;34.76;47.29;100837.56;4973368;28;20065;-85
2023/08/19 08:39:05;;;;;;;11.98;8.35;;;;;;;34.71;47.25;100830.94;4968573;28;20040;-90
2023/08/19 08:41:33;;;;;;;8.30;7.70;;;;;;;35.26;46.41;100827.56;4972988;28;20047;-87
2023/08/19 08:44:00;;;;;;;8.68;7.95;;;;;;;35.25;44.27;100828.59;4989051;28;20043;-83
2023/08/19 08:46:28;;;;;;;9.25;8.45;;;;;;;35.56;44.09;100829.75;4967140;28;20062;-82
2023/08/19 08:48:56;;;;;;;8.60;7.90;;;;;;;35.28;44.45;100832.84;4984116;28;20050;-82
2023/08/19 08:51:23;;;;;;;8.80;7.40;;;;;;;35.81;44.24;100832.41;4974868;28;20063;-82
2023/08/19 08:53:50;;;;;;;8.20;7.53;;;;;;;36.30;43.21;100829.50;4973107;28;20110;-83
2023/08/19 08:56:24;;;;;;;8.07;7.30;;;;;;;36.01;42.20;100830.13;4977801;28;20443;-82
2023/08/19 08:58:51;;;;;;;8.55;7.75;;;;;;;36.03;42.85;100830.81;4981558;28;20050;-82
2023/08/19 09:01:22;;;;;;;7.95;7.07;;;;;;;35.98;42.79;100825.88;4973904;28;20498;-83
2023/08/19 09:03:52;;;;;;;8.32;7.68;;;;;;;36.25;42.17;100829.19;4964574;28;20055;-82
2023/08/19 09:06:26;;;;;;;7.97;7.18;;;;;;;36.98;40.00;100829.75;4989132;28;20043;-83
2023/08/19 09:09:04;;;;;;;8.30;7.43;;;;;;;36.54;40.64;100835.84;4981035;28;20058;-83
2023/08/19 09:11:38;;;;;;;8.27;7.57;;;;;;;36.96;39.19;100830.97;5001334;28;20065;-84
2023/08/19 09:14:42;;;;;;;7.78;6.65;;;;;;;37.23;39.19;100841.28;4972806;28;20054;-84
2023/08/19 09:17:14;;;;;;;7.57;6.90;;;;;;;37.90;38.41;100845.06;4980591;28;20494;-81
2023/08/19 09:19:41;;;;;;;7.45;6.75;;;;;;;37.89;38.25;100846.09;4979200;28;20038;-82
2023/08/19 09:22:22;;;;;;;7.07;6.63;;;;;;;38.85;36.33;100834.22;4974388;28;20062;-81
2023/08/19 09:24:50;;;;;;;7.10;6.57;;;;;;;38.37;36.61;100825.69;4975350;28;20098;-81
2023/08/19 09:27:35;;;;;;;7.20;6.68;;;;;;;37.61;37.41;100824.03;4971553;28;20051;-81
2023/08/19 09:30:02;;;;;;;6.38;5.95;;;;;;;37.15;38.90;100826.88;4969272;28;20055;-83
2023/08/19 09:32:31;;;;;;;7.57;6.80;;;;;;;36.86;38.48;100818.44;4965079;28;20505;-82
2023/08/19 09:35:11;;;;;;;6.57;6.03;;;;;;;36.38;39.07;100818.56;4971616;28;20047;-82
2023/08/19 09:37:41;;;;;;;7.00;6.50;;;;;;;36.99;37.84;100820.53;4968857;28;20577;-83
2023/08/19 09:40:13;;;;;;;5.97;5.57;;;;;;;37.38;37.71;100818.69;4972449;28;20066;-83
2023/08/19 09:42:41;;;;;;;;;;;;;;;38.02;36.13;100809.06;4977851;28;20078;-83
2023/08/19 09:45:10;;;;;;;5.60;5.30;;;;;;;38.39;35.46;100813.50;4971289;28;19922;-85
2023/08/19 09:47:47;;;;;;;7.05;5.38;;;;;;;38.74;34.14;100806.53;5013230;28;20034;-94
2023/08/19 09:50:16;;;;;;;5.70;5.30;;;;;;;39.08;34.35;100811.22;4984697;28;20043;-82
2023/08/19 09:52:53;;;;;;;5.68;5.25;;;;;;;39.78;33.36;100814.06;4995667;28;20471;-83
2023/08/19 09:55:26;;;;;;;5.32;4.82;;;;;;;40.12;32.55;100809.59;4978099;28;20066;-82
2023/08/19 09:57:53;;;;;;;4.63;4.35;;;;;;;40.68;31.06;100811.22;4984771;28;20042;-81
2023/08/19 10:00:20;;;;;;;4.75;4.53;;;;;;;40.99;30.98;100814.41;4982119;28;20049;-82
2023/08/19 10:02:48;;;;;;;5.00;4.45;;;;;;;41.14;30.89;100811.44;4984011;28;20048;-82
2023/08/19 10:05:34;;;;;;;4.72;4.50;;;;;;;41.73;28.96;100803.31;4978103;28;20052;-83
2023/08/19 10:08:05;;;;;;;5.20;4.70;;;;;;;41.77;29.66;100805.44;4991400;28;20065;-82
2023/08/19 10:10:40;;;;;;;4.55;4.22;;;;;;;41.92;29.17;100810.66;4980061;28;20047;-83
2023/08/19 10:13:09;;;;;;;4.53;4.22;;;;;;;42.47;27.99;100810.16;4975442;28;20105;-81
2023/08/19 10:15:40;;;;;;;4.72;4.38;;;;;;;41.63;29.07;100807.38;4975643;28;20390;-82
2023/08/19 10:18:16;;;;;;;3.93;3.63;;;;;;;41.84;28.91;100808.19;4991308;28;20038;-86
2023/08/19 10:20:47;;;;;;;4.53;4.00;;;;;;;42.17;28.84;100804.41;4980721;28;20115;-82
2023/08/19 10:23:16;;;;;;;4.80;4.43;;;;;;;41.99;28.97;100802.38;4994258;28;20484;-82
2023/08/19 10:25:43;;;;;;;4.03;3.83;;;;;;;42.88;27.30;100808.00;4975556;28;20452;-85
2023/08/19 10:28:23;;;;;;;3.80;3.50;;;;;;;43.04;27.26;100811.22;4969573;28;20072;-84
2023/08/19 10:31:12;;;;;;;3.72;3.53;;;;;;;43.62;26.08;100804.53;4981498;28;20054;-82
2023/08/19 10:33:50;;;;;;;4.00;3.70;;;;;;;44.08;25.45;100805.03;4968879;28;20055;-81
2023/08/19 10:36:19;;;;;;;4.68;4.40;;;;;;;43.48;26.45;100801.06;4994207;28;20072;-82
2023/08/19 10:38:48;;;;;;;4.07;3.83;;;;;;;42.77;27.67;100804.03;4959617;28;20039;-84
2023/08/19 10:41:35;;;;;;;3.92;3.63;;;;;;;41.31;28.13;100801.69;4963592;28;20051;-83
2023/08/19 10:44:12;;;;;;;4.05;3.85;;;;;;;39.75;30.56;100803.47;4974137;28;20556;-82
2023/08/19 10:46:45;;;;;;;3.83;3.63;;;;;;;38.52;32.42;100801.84;4975863;28;20048;-87
2023/08/19 10:49:19;;;;;;;4.70;4.30;;;;;;;37.83;33.34;100791.38;4987743;28;20054;-83
2023/08/19 10:51:53;;;;;;;4.45;4.05;;;;;;;37.93;33.21;100782.88;4977139;28;20046;-84
2023/08/19 10:54:43;;;;;;;5.03;4.15;;;;;;;38.52;32.17;100790.91;4962375;28;20039;-84
2023/08/19 10:57:12;;;;;;;5.03;4.38;;;;;;;38.71;31.88;100788.59;4969526;28;20482;-92
2023/08/19 10:59:44;;;;;;;4.80;4.47;;;;;;;38.26;32.05;100788.75;4975748;28;20046;-82
2023/08/19 11:02:12;;;;;;;5.22;4.72;;;;;;;37.81;33.18;100782.50;4979287;28;20058;-87
2023/08/19 11:04:43;;;;;;;5.70;3.78;;;;;;;37.31;33.76;100771.28;4972695;28;20057;-86
2023/08/19 11:07:11;;;;;;;4.70;4.32;;;;;;;37.09;34.26;100784.78;4973695;28;20085;-86
2023/08/19 11:09:42;;;;;;;4.00;3.75;;;;;;;36.28;35.23;100782.47;4978187;28;20046;-88
2023/08/19 11:12:11;;;;;;;6.00;4.07;;;;;;;36.18;35.74;100780.00;4957523;28;20478;-82
2023/08/19 11:14:38;;;;;;;5.15;3.97;;;;;;;35.89;36.01;100777.91;4991559;28;20042;-85
2023/08/19 11:17:05;;;;;;;3.72;3.53;;;;;;;35.84;36.44;100783.88;4988321;28;20050;-84
2023/08/19 11:19:36;;;;;;;5.75;4.53;;;;;;;35.41;36.92;100777.88;4993824;28;20053;-82
2023/08/19 11:22:03;;;;;;;5.72;3.90;;;;;;;35.39;37.21;100777.22;4986219;28;20061;-82